Dauntless Aviation
Airports North America United States Colorado
98CO

NCMC HELIPORT

GREELEY, CO, USA

Airport Info
Suggest Updated Information for this Airport

Location

Latitude / Longitude: 40°24'53"N / 104°42'28"W
  40°24.9'N / 104°42.4667'W
  40.4150 / -104.7078
Elevation: 4882 ft. (estimated)
Variation: 12E (1985)
From city: 00 miles N of GREELEY, CO

Operations

Facility use: Private
Sectional chart: DENVER
Control tower: no
Boundary ARTCC: DENVER
FSS: DENVER [1-800-WX-BRIEF]
Segmented circle: no

Communications

Nearby radio navigation aids

VOR radial/distance VOR name Freq Var
GLL 233oT/8.9 GILL VORTAC 114.20 13E
DVV 353oT/31.5 MILE HIGH VORTAC 114.70 11E
BJC 33oT/36.1 JEFFCO VOR/DME 115.40 11E
DEN 357oT/36.2 DENVER VOR/DME 117.90 11E
 
NDB name Hdg/Dist Freq Var ID

Services

Runway Information

Helipad H1

Dimensions: 40 x 40 ft.
Surface: PORTLAND CEMENT CONCRETE,NO SPECIAL SURFACE TREATMENT
 

Additional Remarks

Instrument Procedures

No published instrument procedures available
Topographic chart at:
Satellite photo at:
Airport distance calculator
From:
Weather Reports

METAR

KGXY
4.2nm NE
KGXY 242356Z AUTO 05010KT 10SM CLR 13/M05 A3011 RMK AO2 SLP196 T01331050 10150 20100 50001
KFNL
14.3nm W
KFNL 242356Z AUTO 07011KT 10SM CLR 14/M05 A3010 RMK AO2 SLP172 T01391050 10156 20106 55002
KLMO
25.8nm SW
KLMO 242353Z AUTO 08006KT 10SM OVC080 15/M04 A3013 RMK AO2 T01451041
KEIK
28.6nm S
KEIK 242354Z AUTO 13007KT 10SM BKN080 BKN100 12/M02 A3013 RMK AO2 T01161019
KBDU
33.3nm SW
KBDU 242356Z AUTO 11005KT 10SM BKN075 OVC080 12/M04 A3012 RMK AO2
KDEN
34.0nm SE
KDEN 242353Z 05009KT 10SM SCT060 SCT080 09/M01 A3012 RMK AO2 SLP187 60000 T00941011 10117 20061 52003

TAF

KDEN
34.0nm SE
KDEN 242320Z 2500/2606 06012KT P6SM SCT060 SCT090 FM250200 16007KT P6SM FEW100 FM250500 20008KT P6SM FEW250 FM250800 19005KT 5SM BR FEW250 FM251500 15008KT P6SM SCT250 FM251800 12008KT P6SM SCT080 BKN220 FM260300 20005KT P6SM SCT080 BKN150
KBJC
35.8nm S
KBJC 242320Z 2500/2524 06011KT P6SM SCT060 BKN080 FM250200 12005KT P6SM FEW060 SCT100 FM250400 19006KT P6SM FEW250 FM250800 24006KT P6SM FEW250 FM251500 15008KT P6SM SCT250 FM252300 18006KT P6SM SCT090 BKN200
Safelog

 

Dauntless Aviation

© 2007-2017 Dauntless Aviation, all rights reserved
Information provided via PilotNav comes from a variety of official and unofficial data sources. As errors are possible, do not use PilotNav for primary flight planning purposes. Verify any information that you receive via PilotNav with current and canonical charts and other official documents. The material in this database is subject to database copyrights held by Dauntless Aviation and may not be copied without the express permission of Dauntless Aviation - licenses for use of part of all of this data are available for purchase; enquire via the Dauntless Aviation helpdesk. A number of mechanisms and markers exist in the database to protect against and identify infringement / copyright. Automated queries against this website are stictly prohibited, and all activity is logged and analyzed.